createdAt,value
2022-12-25T00:52:47.738Z,17.20
2022-12-25T00:55:16.978Z,25.75
2022-12-25T00:57:46.110Z,19.15
2022-12-25T01:00:16.622Z,23.20
2022-12-25T01:02:45.868Z,24.77
2022-12-25T01:05:15.393Z,30.42
2022-12-25T01:07:46.038Z,38.25
2022-12-25T01:10:23.032Z,31.23
2022-12-25T01:12:52.974Z,33.08
2022-12-25T01:15:22.264Z,23.70
2022-12-25T01:17:51.371Z,29.00
2022-12-25T01:20:20.793Z,24.35
2022-12-25T01:22:51.422Z,18.23
2022-12-25T01:25:20.556Z,28.02
2022-12-25T01:27:49.636Z,26.23
2022-12-25T01:30:18.933Z,32.22
2022-12-25T01:32:48.032Z,20.48
2022-12-25T01:35:17.266Z,29.45
2022-12-25T01:37:46.402Z,27.48
2022-12-25T01:40:17.049Z,21.05
2022-12-25T01:42:46.156Z,18.83
2022-12-25T01:45:44.455Z,26.10
2022-12-25T01:48:18.439Z,17.88
2022-12-25T01:50:51.574Z,23.20
2022-12-25T01:53:20.776Z,41.03
2022-12-25T01:55:55.953Z,36.17
2022-12-25T01:58:25.722Z,38.40
2022-12-25T02:00:55.549Z,42.60
2022-12-25T02:03:25.199Z,32.70
2022-12-25T02:05:54.975Z,33.28
2022-12-25T02:08:25.088Z,29.27
2022-12-25T02:10:55.983Z,27.13
2022-12-25T02:13:25.173Z,34.72
2022-12-25T02:16:03.246Z,30.02
2022-12-25T02:18:41.036Z,27.75
2022-12-25T02:21:45.950Z,27.50
2022-12-25T02:24:51.884Z,27.63
2022-12-25T02:27:37.259Z,30.50
2022-12-25T02:30:11.104Z,26.52
2022-12-25T02:32:47.886Z,28.15
2022-12-25T02:35:19.657Z,25.17
2022-12-25T02:37:57.525Z,32.70
2022-12-25T02:40:32.014Z,26.52
2022-12-25T02:43:20.767Z,26.35
2022-12-25T02:46:12.481Z,42.53
2022-12-25T02:49:03.932Z,34.28
2022-12-25T02:51:54.083Z,37.80
2022-12-25T02:54:45.736Z,29.80
2022-12-25T02:57:35.537Z,35.67
2022-12-25T03:00:23.694Z,35.55
2022-12-25T03:03:13.969Z,33.90
2022-12-25T03:06:01.825Z,40.28
2022-12-25T03:08:33.334Z,49.60
2022-12-25T03:11:22.172Z,52.15
2022-12-25T03:13:53.833Z,43.42
2022-12-25T03:16:41.092Z,44.30
2022-12-25T03:19:25.334Z,28.92
2022-12-25T03:22:13.168Z,23.90
2022-12-25T03:25:11.774Z,24.25
2022-12-25T03:27:43.601Z,24.25
2022-12-25T03:30:30.350Z,31.38
2022-12-25T03:33:23.288Z,26.48
2022-12-25T03:36:05.055Z,26.48
2022-12-25T03:39:00.575Z,28.85
2022-12-25T03:41:57.284Z,29.95
2022-12-25T03:44:47.203Z,29.90
2022-12-25T03:47:37.336Z,38.97
2022-12-25T03:50:31.553Z,41.83
2022-12-25T03:53:23.680Z,48.90
2022-12-25T03:56:12.132Z,53.80
2022-12-25T03:59:10.774Z,44.47
2022-12-25T04:01:56.854Z,45.53
2022-12-25T04:04:43.360Z,58.45
2022-12-25T04:07:29.268Z,45.78
2022-12-25T04:10:17.033Z,38.30
2022-12-25T04:13:03.171Z,37.85
2022-12-25T04:15:49.045Z,52.97
2022-12-25T04:18:35.173Z,46.10
2022-12-25T04:21:21.233Z,25.33
2022-12-25T04:24:07.238Z,26.17
2022-12-25T04:27:06.436Z,20.75
2022-12-25T04:29:52.596Z,27.58
2022-12-25T04:32:38.865Z,31.25
2022-12-25T04:35:25.466Z,36.80
2022-12-25T04:37:54.771Z,38.28
2022-12-25T04:40:23.864Z,39.20
2022-12-25T04:42:55.001Z,33.92
2022-12-25T04:45:24.143Z,39.17
2022-12-25T04:47:53.303Z,41.13
2022-12-25T04:50:22.561Z,40.53
2022-12-25T04:52:51.780Z,26.73
2022-12-25T04:55:20.949Z,27.45
2022-12-25T04:57:50.043Z,28.90
2022-12-25T05:00:21.419Z,28.33
2022-12-25T05:02:50.671Z,34.50
2022-12-25T05:05:20.159Z,32.80
2022-12-25T05:07:49.517Z,31.15
2022-12-25T05:10:19.525Z,29.88
2022-12-25T05:12:48.655Z,30.95
2022-12-25T05:15:17.925Z,37.55
2022-12-25T05:17:48.559Z,25.42
2022-12-25T05:20:17.779Z,33.60
2022-12-25T05:22:46.922Z,41.28
2022-12-25T05:25:16.114Z,32.83
2022-12-25T05:27:48.806Z,33.10
2022-12-25T05:30:22.887Z,36.10
2022-12-25T05:32:53.469Z,30.98
2022-12-25T05:35:23.690Z,27.48
2022-12-25T05:37:52.846Z,29.88
2022-12-25T05:40:21.962Z,30.35
2022-12-25T05:42:51.395Z,32.25
2022-12-25T05:45:20.650Z,36.25
2022-12-25T05:47:49.766Z,28.48
2022-12-25T05:50:20.584Z,24.55
2022-12-25T05:52:49.788Z,33.75
2022-12-25T05:55:19.064Z,29.50
2022-12-25T05:57:48.152Z,32.97
2022-12-25T06:00:17.765Z,30.77
2022-12-25T06:02:47.096Z,28.02
2022-12-25T06:05:16.396Z,33.97
2022-12-25T06:07:47.038Z,28.58
2022-12-25T06:10:16.490Z,30.65
2022-12-25T06:12:45.681Z,38.30
2022-12-25T06:15:14.805Z,39.67
2022-12-25T06:17:44.026Z,42.05
2022-12-25T06:20:13.418Z,32.35
2022-12-25T06:22:42.665Z,37.75
2022-12-25T06:25:13.821Z,46.60
2022-12-25T06:27:43.066Z,46.85
2022-12-25T06:30:12.860Z,35.58
2022-12-25T06:32:42.068Z,35.72
2022-12-25T06:35:11.552Z,39.08
2022-12-25T06:37:40.780Z,32.45
2022-12-25T06:40:11.001Z,33.85
2022-12-25T06:42:41.695Z,37.20
2022-12-25T06:45:11.626Z,44.60
2022-12-25T06:47:40.771Z,39.55
2022-12-25T06:50:10.427Z,43.60
2022-12-25T06:52:39.632Z,33.78
2022-12-25T06:55:09.492Z,43.90
2022-12-25T06:57:38.876Z,56.15
2022-12-25T07:00:11.204Z,43.83
2022-12-25T07:02:40.579Z,40.38
2022-12-25T07:05:10.279Z,42.85
2022-12-25T07:07:39.373Z,52.53
2022-12-25T07:10:09.784Z,44.28
2022-12-25T07:12:38.898Z,44.95
2022-12-25T07:15:11.288Z,41.38
2022-12-25T07:17:40.376Z,30.40
2022-12-25T07:20:10.717Z,34.83
2022-12-25T07:22:39.820Z,34.92
2022-12-25T07:25:09.575Z,33.45
2022-12-25T07:27:38.689Z,30.73
2022-12-25T07:30:10.850Z,36.05
2022-12-25T07:32:39.980Z,33.72
2022-12-25T07:35:09.728Z,33.53
2022-12-25T07:37:38.895Z,38.15
2022-12-25T07:40:09.443Z,34.92
2022-12-25T07:42:38.617Z,37.92
2022-12-25T07:45:10.294Z,38.28
2022-12-25T07:47:39.463Z,33.47
2022-12-25T07:50:09.810Z,32.92
2022-12-25T07:52:43.396Z,34.55
2022-12-25T07:55:13.159Z,27.83
2022-12-25T07:57:42.650Z,24.88
2022-12-25T08:00:15.314Z,31.38
2022-12-25T08:02:44.757Z,30.45
2022-12-25T08:05:14.266Z,20.60
2022-12-25T08:07:43.353Z,24.05
2022-12-25T08:10:13.208Z,30.27
2022-12-25T08:12:42.302Z,22.65
2022-12-25T08:15:14.380Z,29.08
2022-12-25T08:17:43.553Z,23.85
2022-12-25T08:20:13.324Z,24.55
2022-12-25T08:22:42.485Z,24.95
2022-12-25T08:25:12.076Z,25.13
2022-12-25T08:27:41.205Z,30.40
2022-12-25T08:30:11.477Z,38.28
2022-12-25T08:32:42.213Z,26.63
2022-12-25T08:35:11.682Z,22.23
2022-12-25T08:37:41.058Z,27.73
2022-12-25T08:40:11.356Z,27.00
2022-12-25T08:42:40.522Z,23.45
2022-12-25T08:45:10.909Z,23.98
2022-12-25T08:47:41.527Z,22.50
2022-12-25T08:50:11.536Z,28.40
2022-12-25T08:52:41.060Z,21.33
2022-12-25T08:55:10.778Z,26.60
2022-12-25T08:57:40.002Z,30.63
2022-12-25T09:00:10.831Z,30.20
2022-12-25T09:02:41.681Z,27.92
2022-12-25T09:05:11.697Z,28.70
2022-12-25T09:07:40.919Z,26.38
2022-12-25T09:10:11.030Z,15.52
2022-12-25T09:12:40.160Z,20.58
2022-12-25T09:15:09.992Z,24.23
2022-12-25T09:17:39.247Z,27.10
2022-12-25T09:20:10.710Z,30.05
2022-12-25T09:22:39.953Z,21.92
2022-12-25T09:25:09.690Z,33.33
2022-12-25T09:27:38.930Z,27.13
2022-12-25T09:30:09.699Z,22.33
2022-12-25T09:32:40.602Z,20.95
2022-12-25T09:35:11.710Z,25.70
2022-12-25T09:37:40.948Z,18.13
2022-12-25T09:40:12.219Z,17.92
2022-12-25T09:42:41.988Z,19.73
2022-12-25T09:45:17.346Z,20.42
2022-12-25T09:47:49.850Z,39.30
2022-12-25T09:50:25.620Z,28.80
2022-12-25T09:53:00.384Z,28.02
2022-12-25T09:55:32.618Z,16.98
2022-12-25T09:58:13.123Z,18.60
2022-12-25T10:00:45.266Z,20.70
2022-12-25T10:03:35.056Z,21.52
2022-12-25T10:06:18.919Z,22.48
2022-12-25T10:09:23.701Z,17.88
2022-12-25T10:12:04.476Z,17.05
2022-12-25T10:14:41.685Z,13.40
2022-12-25T10:17:28.152Z,17.50
2022-12-25T10:20:08.848Z,20.27
2022-12-25T10:22:42.995Z,19.42
2022-12-25T10:25:19.053Z,19.77
2022-12-25T10:27:52.679Z,22.48
2022-12-25T10:30:24.038Z,23.77
2022-12-25T10:32:54.829Z,26.45
2022-12-25T10:35:27.024Z,32.58
2022-12-25T10:38:02.040Z,32.28
2022-12-25T10:40:40.663Z,26.97
2022-12-25T10:43:14.190Z,23.50
2022-12-25T10:45:48.156Z,25.83
2022-12-25T10:48:23.452Z,21.25
2022-12-25T10:50:52.800Z,26.63
2022-12-25T10:53:26.843Z,25.38
2022-12-25T10:55:57.708Z,17.30
2022-12-25T10:58:27.116Z,18.95
2022-12-25T11:00:59.626Z,21.25
2022-12-25T11:03:32.353Z,24.67
2022-12-25T11:06:03.213Z,31.60
2022-12-25T11:08:35.560Z,36.92
2022-12-25T11:11:07.845Z,19.50
2022-12-25T11:13:41.678Z,29.85
2022-12-25T11:16:15.316Z,25.70
2022-12-25T11:18:50.124Z,30.50
2022-12-25T11:21:21.262Z,35.45
2022-12-25T11:23:57.955Z,34.88
2022-12-25T11:26:29.136Z,34.70
2022-12-25T11:28:59.244Z,28.70
2022-12-25T11:31:38.552Z,30.42
2022-12-25T11:34:13.391Z,30.73
2022-12-25T11:36:47.100Z,28.92
2022-12-25T11:39:24.675Z,33.33
2022-12-25T11:41:59.233Z,37.15
2022-12-25T11:44:40.594Z,32.75
2022-12-25T11:47:17.420Z,29.33
2022-12-25T11:49:56.179Z,33.88
2022-12-25T11:52:34.220Z,31.95
2022-12-25T11:55:10.298Z,28.80
2022-12-25T11:57:41.054Z,21.30
2022-12-25T12:00:16.406Z,24.70
2022-12-25T12:02:50.730Z,17.52
2022-12-25T12:05:25.956Z,28.15
2022-12-25T12:07:59.764Z,25.58
2022-12-25T12:10:43.749Z,24.73
2022-12-25T12:13:28.812Z,26.67
2022-12-25T12:15:58.941Z,31.88
2022-12-25T12:18:33.856Z,22.67
2022-12-25T12:21:06.474Z,30.50
2022-12-25T12:23:38.799Z,37.53
2022-12-25T12:26:09.523Z,21.38
2022-12-25T12:28:46.874Z,27.38
2022-12-25T12:31:17.797Z,32.53
2022-12-25T12:33:53.974Z,23.85
2022-12-25T12:36:35.571Z,31.63
2022-12-25T12:39:07.233Z,39.50
2022-12-25T12:41:49.866Z,35.40
2022-12-25T12:44:20.199Z,34.88
2022-12-25T12:46:54.872Z,34.95
2022-12-25T12:49:27.002Z,36.50
2022-12-25T12:52:07.211Z,33.53
2022-12-25T12:54:56.552Z,36.53
2022-12-25T12:57:30.258Z,31.98
2022-12-25T13:00:08.428Z,24.73
2022-12-25T13:03:19.900Z,32.60
2022-12-25T13:05:54.590Z,30.20
2022-12-25T13:08:36.176Z,42.63
2022-12-25T13:11:12.688Z,32.33
2022-12-25T13:13:46.168Z,23.20
2022-12-25T13:16:25.395Z,50.67
2022-12-25T13:18:56.588Z,34.28
2022-12-25T13:21:27.250Z,34.10
2022-12-25T13:24:02.081Z,18.27
2022-12-25T13:26:32.236Z,20.27
2022-12-25T13:29:07.851Z,27.40
2022-12-25T13:31:43.074Z,26.67
2022-12-25T13:34:24.956Z,28.58
2022-12-25T13:36:54.296Z,25.98
2022-12-25T13:39:25.528Z,22.73
2022-12-25T13:42:07.128Z,32.00
2022-12-25T13:44:48.307Z,19.92
2022-12-25T13:47:24.192Z,20.63
2022-12-25T13:49:55.533Z,28.63
2022-12-25T13:52:29.859Z,27.33
2022-12-25T13:55:01.852Z,35.28
2022-12-25T13:57:35.254Z,27.17
2022-12-25T14:00:08.484Z,24.23
2022-12-25T14:02:39.278Z,30.00
2022-12-25T14:05:27.094Z,34.63
2022-12-25T14:07:57.036Z,31.83
2022-12-25T14:10:29.288Z,25.40
2022-12-25T14:13:01.690Z,25.17
2022-12-25T14:15:34.740Z,22.08
2022-12-25T14:18:04.420Z,25.88
2022-12-25T14:20:39.061Z,31.38
2022-12-25T14:23:09.388Z,26.90
2022-12-25T14:25:45.192Z,23.25
2022-12-25T14:28:22.002Z,21.58
2022-12-25T14:30:53.308Z,25.75
2022-12-25T14:33:25.254Z,23.63
2022-12-25T14:35:54.865Z,18.25
2022-12-25T14:38:26.602Z,24.30
2022-12-25T14:41:02.632Z,23.42
2022-12-25T14:43:33.478Z,25.75
2022-12-25T14:46:09.561Z,28.13
2022-12-25T14:48:38.893Z,47.35
2022-12-25T14:51:11.254Z,23.38
2022-12-25T14:53:48.078Z,25.65
2022-12-25T14:56:20.190Z,18.02
2022-12-25T14:58:52.593Z,12.15
2022-12-25T15:01:29.271Z,15.57
2022-12-25T15:04:10.099Z,13.23
2022-12-25T15:06:41.759Z,19.00
2022-12-25T15:09:17.819Z,18.42
2022-12-25T15:11:50.108Z,17.27
2022-12-25T15:14:19.740Z,23.20
2022-12-25T15:16:52.434Z,20.05
2022-12-25T15:19:26.620Z,17.38
2022-12-25T15:21:57.867Z,25.00
2022-12-25T15:24:27.242Z,20.83
2022-12-25T15:27:00.857Z,24.45
2022-12-25T15:30:07.852Z,22.23
2022-12-25T15:32:22.889Z,27.08
2022-12-25T15:34:53.469Z,24.55
2022-12-25T15:37:22.540Z,24.80
2022-12-25T15:39:51.632Z,31.92
2022-12-25T15:42:25.359Z,23.85
2022-12-25T15:44:54.475Z,22.25
2022-12-25T15:47:25.600Z,30.50
2022-12-25T15:49:57.130Z,22.83
2022-12-25T15:52:26.256Z,20.63
2022-12-25T15:54:55.395Z,23.83
2022-12-25T15:57:26.738Z,19.50
2022-12-25T15:59:55.916Z,22.40
2022-12-25T16:02:27.989Z,25.55
2022-12-25T16:04:57.273Z,18.50
2022-12-25T16:07:28.080Z,15.95
2022-12-25T16:09:57.210Z,25.38
2022-12-25T16:12:26.279Z,22.10
2022-12-25T16:14:55.517Z,28.33
2022-12-25T16:17:26.156Z,42.33
2022-12-25T16:19:55.317Z,34.03
2022-12-25T16:22:26.543Z,30.48
2022-12-25T16:24:56.108Z,30.05
2022-12-25T16:27:25.652Z,28.02
2022-12-25T16:29:56.075Z,24.35
2022-12-25T16:32:26.841Z,23.40
2022-12-25T16:34:56.032Z,26.15
2022-12-25T16:37:25.332Z,26.63
2022-12-25T16:39:54.608Z,21.35
2022-12-25T16:42:23.876Z,23.63
2022-12-25T16:44:53.182Z,18.48
2022-12-25T16:47:22.663Z,19.30
2022-12-25T16:49:53.510Z,17.70
2022-12-25T16:52:22.865Z,21.35
2022-12-25T16:54:52.161Z,20.48
2022-12-25T16:57:21.421Z,21.45
2022-12-25T16:59:50.751Z,15.57
2022-12-25T17:02:22.219Z,17.23
2022-12-25T17:04:53.115Z,35.35
2022-12-25T17:07:22.510Z,21.65
2022-12-25T17:09:52.291Z,16.83
2022-12-25T17:12:21.545Z,17.73
2022-12-25T17:14:50.763Z,15.80
2022-12-25T17:17:20.014Z,14.88
2022-12-25T17:19:49.418Z,18.67
2022-12-25T17:22:20.136Z,23.08
2022-12-25T17:24:49.438Z,16.42
2022-12-25T17:27:19.134Z,16.77
2022-12-25T17:29:50.155Z,20.52
2022-12-25T17:32:19.453Z,20.33
2022-12-25T17:34:49.376Z,17.75
2022-12-25T17:37:20.189Z,15.68
2022-12-25T17:39:49.648Z,14.90
2022-12-25T17:42:18.932Z,54.30
2022-12-25T17:44:48.757Z,16.98
2022-12-25T17:47:17.965Z,19.13
2022-12-25T17:49:47.159Z,16.05
2022-12-25T17:52:16.351Z,19.55
2022-12-25T17:54:47.148Z,14.40
2022-12-25T17:57:16.419Z,18.95
2022-12-25T17:59:45.734Z,11.75
2022-12-25T18:02:15.111Z,12.23
2022-12-25T18:04:44.362Z,18.00
2022-12-25T18:07:14.800Z,12.60
2022-12-25T18:09:44.117Z,15.45
2022-12-25T18:12:14.876Z,13.73
2022-12-25T18:14:44.242Z,21.60
2022-12-25T18:17:13.464Z,16.60
2022-12-25T18:19:42.685Z,13.32
2022-12-25T18:22:11.931Z,13.55
2022-12-25T18:24:41.519Z,13.60
2022-12-25T18:27:10.770Z,14.57
2022-12-25T18:29:41.650Z,15.77
2022-12-25T18:32:11.048Z,12.80
2022-12-25T18:34:40.298Z,11.63
2022-12-25T18:37:09.565Z,15.15
2022-12-25T18:39:38.801Z,16.05
2022-12-25T18:42:25.337Z,16.33
2022-12-25T18:44:56.178Z,12.35
2022-12-25T18:47:25.564Z,16.35
2022-12-25T18:49:54.982Z,15.60
2022-12-25T18:52:47.809Z,11.30
2022-12-25T18:55:13.550Z,12.55
2022-12-25T18:57:42.798Z,18.52
2022-12-25T19:00:14.199Z,10.80
2022-12-25T19:02:43.638Z,13.15
2022-12-25T19:05:12.980Z,16.73
2022-12-25T19:07:42.256Z,15.70
2022-12-25T19:10:12.098Z,14.35
2022-12-25T19:12:41.311Z,10.10
2022-12-25T19:15:11.394Z,15.30
2022-12-25T19:17:42.191Z,12.20
2022-12-25T19:20:13.329Z,12.45
2022-12-25T19:22:42.586Z,14.20
2022-12-25T19:25:12.251Z,13.52
2022-12-25T19:27:41.466Z,11.15
2022-12-25T19:30:12.449Z,10.82
2022-12-25T19:32:43.160Z,16.27
2022-12-25T19:35:12.501Z,11.25
2022-12-25T19:37:41.755Z,11.93
2022-12-25T19:40:11.872Z,17.75
2022-12-25T19:42:41.157Z,14.57
2022-12-25T19:45:11.307Z,12.80
2022-12-25T19:47:44.749Z,14.80
2022-12-25T19:50:13.963Z,16.50
2022-12-25T19:52:44.786Z,14.00
2022-12-25T19:55:14.031Z,13.25
2022-12-25T19:57:43.296Z,12.70
2022-12-25T20:00:13.100Z,15.73
2022-12-25T20:02:44.002Z,13.45
2022-12-25T20:05:13.281Z,12.27
2022-12-25T20:07:42.494Z,8.30
2022-12-25T20:10:12.074Z,10.38
2022-12-25T20:12:41.294Z,11.20
2022-12-25T20:15:11.531Z,9.95
2022-12-25T20:17:40.749Z,10.95
2022-12-25T20:20:12.625Z,13.25
2022-12-25T20:22:41.869Z,9.50
2022-12-25T20:25:11.853Z,10.70
2022-12-25T20:27:41.087Z,8.65
2022-12-25T20:30:11.176Z,9.98
2022-12-25T20:32:43.721Z,9.43
2022-12-25T20:35:19.472Z,11.00
2022-12-25T20:37:48.687Z,10.07
2022-12-25T20:40:18.026Z,10.00
2022-12-25T20:42:47.189Z,7.40
2022-12-25T20:45:16.500Z,10.88
2022-12-25T20:47:45.683Z,8.10
2022-12-25T20:50:14.905Z,8.43
2022-12-25T20:52:45.782Z,11.13
2022-12-25T20:55:15.159Z,11.27
2022-12-25T20:57:44.403Z,12.88
2022-12-25T21:00:15.358Z,10.30
2022-12-25T21:02:45.029Z,7.93
2022-12-25T21:05:14.385Z,10.13
2022-12-25T21:07:45.143Z,8.05
2022-12-25T21:10:14.411Z,11.07
2022-12-25T21:12:43.616Z,10.00
2022-12-25T21:15:15.736Z,8.80
2022-12-25T21:17:45.287Z,11.20
2022-12-25T21:20:14.605Z,8.63
2022-12-25T21:22:45.532Z,12.82
2022-12-25T21:25:14.783Z,8.85
2022-12-25T21:27:43.983Z,10.90
2022-12-25T21:30:15.217Z,11.73
2022-12-25T21:33:01.906Z,9.80
2022-12-25T21:35:31.218Z,8.32
2022-12-25T21:38:02.052Z,12.48
2022-12-25T21:40:31.505Z,10.27
2022-12-25T21:43:00.992Z,11.43
2022-12-25T21:45:30.468Z,9.68
2022-12-25T21:48:02.957Z,9.02
2022-12-25T21:50:49.636Z,11.32
2022-12-25T21:53:21.490Z,8.68
2022-12-25T21:56:02.641Z,8.95
2022-12-25T21:58:32.113Z,9.52
2022-12-25T22:01:04.728Z,13.07
2022-12-25T22:03:34.054Z,11.30
2022-12-25T22:06:21.826Z,9.48
2022-12-25T22:08:52.730Z,12.55
2022-12-25T22:11:39.033Z,9.10
2022-12-25T22:14:52.316Z,13.75
2022-12-25T22:17:32.091Z,11.32
2022-12-25T22:20:01.594Z,13.73
2022-12-25T22:22:32.563Z,17.98
2022-12-25T22:25:05.603Z,17.17
2022-12-25T22:27:35.897Z,11.68
2022-12-25T22:30:05.923Z,12.02
2022-12-25T22:32:35.990Z,14.18
2022-12-25T22:35:05.695Z,10.30
2022-12-25T22:37:36.341Z,12.73
2022-12-25T22:40:08.461Z,14.63
2022-12-25T22:42:37.832Z,14.05
2022-12-25T22:45:07.774Z,13.38
2022-12-25T22:47:37.223Z,14.48
2022-12-25T22:50:07.045Z,12.98
2022-12-25T22:52:36.325Z,11.27
2022-12-25T22:55:09.054Z,14.68
2022-12-25T22:57:38.675Z,12.38
2022-12-25T23:00:10.501Z,11.55
2022-12-25T23:02:39.996Z,12.35
2022-12-25T23:05:09.937Z,11.32
2022-12-25T23:07:39.223Z,11.05
2022-12-25T23:10:11.820Z,12.68
2022-12-25T23:12:57.897Z,10.43
2022-12-25T23:15:28.029Z,15.13
2022-12-25T23:18:14.266Z,11.98
2022-12-25T23:21:05.870Z,13.90
2022-12-25T23:23:52.065Z,14.02
2022-12-25T23:26:23.422Z,15.82
2022-12-25T23:29:09.600Z,18.02
2022-12-25T23:31:41.467Z,14.32
2022-12-25T23:34:10.979Z,8.80
2022-12-25T23:36:40.202Z,10.50
2022-12-25T23:39:10.591Z,10.70
2022-12-25T23:41:43.515Z,11.10
2022-12-25T23:44:14.507Z,11.98
2022-12-25T23:46:52.918Z,15.70
2022-12-25T23:49:23.168Z,12.27
2022-12-25T23:51:53.099Z,12.40
2022-12-25T23:54:24.684Z,13.90
2022-12-25T23:56:57.747Z,14.82
2022-12-25T23:59:27.098Z,17.67
